createdAt,value
2022-10-22T00:00:00.815Z,9.2
2022-10-22T00:01:00.374Z,9.2
2022-10-22T00:02:00.240Z,9.2
2022-10-22T00:03:00.304Z,9.1
2022-10-22T00:04:00.225Z,9.1
2022-10-22T00:05:00.260Z,9.1
2022-10-22T00:06:00.266Z,9.1
2022-10-22T00:07:00.230Z,9.0
2022-10-22T00:08:00.232Z,9.0
2022-10-22T00:09:00.367Z,9.0
2022-10-22T00:10:00.833Z,9.0
2022-10-22T00:11:06.784Z,8.9
2022-10-22T00:12:00.250Z,8.9
2022-10-22T00:13:00.233Z,8.9
2022-10-22T00:14:00.266Z,8.9
2022-10-22T00:15:00.316Z,8.9
2022-10-22T00:16:00.229Z,8.8
2022-10-22T00:17:00.460Z,8.8
2022-10-22T00:18:00.343Z,8.8
2022-10-22T00:19:00.271Z,8.8
2022-10-22T00:20:00.266Z,8.8
2022-10-22T00:21:00.912Z,8.8
2022-10-22T00:22:00.355Z,8.9
2022-10-22T00:23:00.270Z,8.9
2022-10-22T00:24:00.696Z,8.9
2022-10-22T00:25:00.228Z,8.9
2022-10-22T00:26:00.355Z,8.9
2022-10-22T00:27:01.094Z,8.9
2022-10-22T00:28:00.549Z,8.9
2022-10-22T00:29:00.221Z,9.0
2022-10-22T00:30:00.246Z,9.1
2022-10-22T00:31:00.809Z,9.1
2022-10-22T00:32:00.370Z,9.1
2022-10-22T00:33:00.297Z,9.1
2022-10-22T00:34:01.224Z,9.1
2022-10-22T00:35:00.227Z,9.1
2022-10-22T00:36:00.240Z,9.2
2022-10-22T00:37:00.364Z,9.2
2022-10-22T00:38:01.394Z,9.2
2022-10-22T00:39:00.307Z,9.2
2022-10-22T00:40:00.258Z,9.3
2022-10-22T00:42:00.344Z,9.3
2022-10-22T00:43:00.262Z,9.3
2022-10-22T00:44:03.637Z,9.3
2022-10-22T00:45:10.171Z,9.4
2022-10-22T00:46:00.227Z,9.4
2022-10-22T00:47:00.334Z,9.4
2022-10-22T00:48:13.760Z,9.4
2022-10-22T00:49:02.531Z,9.4
2022-10-22T00:51:03.018Z,9.4
2022-10-22T00:52:00.270Z,9.4
2022-10-22T00:53:03.231Z,9.4
2022-10-22T00:54:03.836Z,9.4
2022-10-22T00:55:00.535Z,9.4
2022-10-22T00:56:00.626Z,9.4
2022-10-22T00:57:00.558Z,9.4
2022-10-22T00:58:00.759Z,9.5
2022-10-22T00:59:01.878Z,9.5
2022-10-22T01:00:00.741Z,9.6
2022-10-22T01:01:01.101Z,9.6
2022-10-22T01:02:00.302Z,9.6
2022-10-22T01:03:00.707Z,9.6
2022-10-22T01:04:00.233Z,9.6
2022-10-22T01:05:00.353Z,9.6
2022-10-22T01:06:03.901Z,9.6
2022-10-22T01:07:00.488Z,9.6
2022-10-22T01:08:00.365Z,9.6
2022-10-22T01:09:11.239Z,9.6
2022-10-22T01:10:20.127Z,9.6
2022-10-22T01:11:14.665Z,9.6
2022-10-22T01:12:13.785Z,9.6
2022-10-22T01:13:14.377Z,9.7
2022-10-22T01:14:09.996Z,9.6
2022-10-22T01:15:00.221Z,9.6
2022-10-22T01:16:13.581Z,9.6
2022-10-22T01:18:06.810Z,9.6
2022-10-22T01:19:17.672Z,9.6
2022-10-22T01:20:11.205Z,9.6
2022-10-22T01:21:08.129Z,9.6
2022-10-22T01:22:10.784Z,9.6
2022-10-22T01:23:20.145Z,9.6
2022-10-22T01:24:13.433Z,9.6
2022-10-22T01:25:15.993Z,9.6
2022-10-22T01:26:06.717Z,9.6
2022-10-22T01:27:20.120Z,9.6
2022-10-22T01:28:10.169Z,9.6
2022-10-22T01:29:08.381Z,9.6
2022-10-22T01:30:04.359Z,9.5
2022-10-22T01:31:03.807Z,9.6
2022-10-22T01:32:06.128Z,9.6
2022-10-22T01:33:05.177Z,9.5
2022-10-22T01:34:02.279Z,9.5
2022-10-22T01:35:04.692Z,9.5
2022-10-22T01:36:02.050Z,9.6
2022-10-22T01:37:02.446Z,9.5
2022-10-22T01:38:04.716Z,9.6
2022-10-22T01:39:01.875Z,9.6
2022-10-22T01:40:01.164Z,9.6
2022-10-22T01:41:00.262Z,9.6
2022-10-22T01:42:00.468Z,9.6
2022-10-22T01:43:04.621Z,9.6
2022-10-22T01:44:00.221Z,9.6
2022-10-22T01:45:00.275Z,9.6
2022-10-22T01:46:03.542Z,9.6
2022-10-22T01:47:16.212Z,9.6
2022-10-22T01:48:10.362Z,9.6
2022-10-22T01:49:10.169Z,9.6
2022-10-22T01:50:20.127Z,9.6
2022-10-22T01:51:17.276Z,9.6
2022-10-22T01:52:20.136Z,9.6
2022-10-22T01:53:20.171Z,9.6
2022-10-22T01:54:13.406Z,9.6
2022-10-22T01:55:07.806Z,9.6
2022-10-22T01:56:20.157Z,9.5
2022-10-22T01:57:13.698Z,9.5
2022-10-22T01:58:10.488Z,9.5
2022-10-22T01:59:05.818Z,9.5
2022-10-22T02:00:03.992Z,9.5
2022-10-22T02:01:12.627Z,9.4
2022-10-22T02:02:10.244Z,9.5
2022-10-22T02:03:07.767Z,9.5
2022-10-22T02:04:08.507Z,9.5
2022-10-22T02:05:14.109Z,9.5
2022-10-22T02:06:04.906Z,9.5
2022-10-22T02:07:03.738Z,9.5
2022-10-22T02:08:05.323Z,9.6
2022-10-22T02:09:02.024Z,9.6
2022-10-22T02:10:02.580Z,9.6
2022-10-22T02:11:01.805Z,9.6
2022-10-22T02:12:02.700Z,9.6
2022-10-22T02:13:02.447Z,9.6
2022-10-22T02:14:02.923Z,9.6
2022-10-22T02:15:02.132Z,9.6
2022-10-22T02:16:02.322Z,9.6
2022-10-22T02:17:00.531Z,9.6
2022-10-22T02:18:01.064Z,9.6
2022-10-22T02:19:06.079Z,9.6
2022-10-22T02:20:05.210Z,9.6
2022-10-22T02:21:00.399Z,9.6
2022-10-22T02:22:00.483Z,9.6
2022-10-22T02:23:01.131Z,9.6
2022-10-22T02:24:00.420Z,9.6
2022-10-22T02:25:00.375Z,9.6
2022-10-22T02:26:15.721Z,9.6
2022-10-22T02:27:07.691Z,9.6
2022-10-22T02:28:03.500Z,9.6
2022-10-22T02:29:13.440Z,9.5
2022-10-22T02:30:05.838Z,9.5
2022-10-22T02:31:07.860Z,9.4
2022-10-22T02:32:03.477Z,9.4
2022-10-22T02:33:10.651Z,9.4
2022-10-22T02:34:06.118Z,9.3
2022-10-22T02:35:02.074Z,9.3
2022-10-22T02:36:01.939Z,9.2
2022-10-22T02:37:02.151Z,9.2
2022-10-22T02:38:01.256Z,9.2
2022-10-22T02:39:00.801Z,9.2
2022-10-22T02:40:00.647Z,9.1
2022-10-22T02:41:00.444Z,9.1
2022-10-22T02:42:01.739Z,9.1
2022-10-22T02:43:03.734Z,9.1
2022-10-22T02:44:00.226Z,9.1
2022-10-22T02:45:00.230Z,9.1
2022-10-22T02:46:00.309Z,9.1
2022-10-22T02:47:00.222Z,9.1
2022-10-22T02:48:02.084Z,9.1
2022-10-22T02:49:00.248Z,9.0
2022-10-22T02:50:00.354Z,9.0
2022-10-22T02:51:00.267Z,9.0
2022-10-22T02:52:00.345Z,9.0
2022-10-22T02:53:00.260Z,9.0
2022-10-22T02:54:00.273Z,9.0
2022-10-22T02:55:00.290Z,8.9
2022-10-22T02:56:00.295Z,8.9
2022-10-22T02:57:00.440Z,8.9
2022-10-22T02:58:00.287Z,8.9
2022-10-22T02:59:00.258Z,8.9
2022-10-22T03:00:00.309Z,8.9
2022-10-22T03:01:00.600Z,8.9
2022-10-22T03:02:00.347Z,8.9
2022-10-22T03:03:00.226Z,8.9
2022-10-22T03:04:00.240Z,8.9
2022-10-22T03:05:00.405Z,8.9
2022-10-22T03:06:00.326Z,8.9
2022-10-22T03:07:00.215Z,8.8
2022-10-22T03:08:00.264Z,8.8
2022-10-22T03:09:00.556Z,8.8
2022-10-22T03:10:00.303Z,8.8
2022-10-22T03:11:00.256Z,8.8
2022-10-22T03:12:00.254Z,8.8
2022-10-22T03:13:00.229Z,8.8
2022-10-22T03:14:00.418Z,8.8
2022-10-22T03:15:00.262Z,8.8
2022-10-22T03:16:00.310Z,8.9
2022-10-22T03:17:00.479Z,8.9
2022-10-22T03:18:00.332Z,8.8
2022-10-22T03:19:00.412Z,8.9
2022-10-22T03:20:00.238Z,8.8
2022-10-22T03:21:06.782Z,8.8
2022-10-22T03:22:06.276Z,8.8
2022-10-22T03:23:01.375Z,8.8
2022-10-22T03:24:03.757Z,8.8
2022-10-22T03:25:04.843Z,8.8
2022-10-22T03:26:00.481Z,8.8
2022-10-22T03:27:00.323Z,8.8
2022-10-22T03:28:04.185Z,8.9
2022-10-22T03:29:00.780Z,8.9
2022-10-22T03:30:01.071Z,8.9
2022-10-22T03:31:00.220Z,8.9
2022-10-22T03:32:00.294Z,8.9
2022-10-22T03:33:00.311Z,8.9
2022-10-22T03:34:00.272Z,8.9
2022-10-22T03:36:00.761Z,9.0
2022-10-22T03:37:01.304Z,9.0
2022-10-22T03:38:00.384Z,9.0
2022-10-22T03:39:01.067Z,9.0
2022-10-22T03:40:01.606Z,9.1
2022-10-22T03:41:00.264Z,9.1
2022-10-22T03:42:01.035Z,9.1
2022-10-22T03:43:00.468Z,9.1
2022-10-22T03:44:03.214Z,9.1
2022-10-22T03:45:00.291Z,9.1
2022-10-22T03:46:00.235Z,9.1
2022-10-22T03:47:02.570Z,9.1
2022-10-22T03:48:00.229Z,9.1
2022-10-22T03:49:00.232Z,9.1
2022-10-22T03:50:00.266Z,9.1
2022-10-22T03:51:01.027Z,9.1
2022-10-22T03:52:11.990Z,9.1
2022-10-22T03:53:00.285Z,9.1
2022-10-22T03:54:00.852Z,9.1
2022-10-22T03:55:00.238Z,9.1
2022-10-22T03:56:00.337Z,9.0
2022-10-22T03:57:00.464Z,9.0
2022-10-22T03:58:00.231Z,9.1
2022-10-22T03:59:00.708Z,9.1
2022-10-22T04:00:00.302Z,9.1
2022-10-22T04:01:04.596Z,9.1
2022-10-22T04:02:00.243Z,9.1
2022-10-22T04:03:00.347Z,9.1
2022-10-22T04:04:00.351Z,9.1
2022-10-22T04:05:00.341Z,9.1
2022-10-22T04:06:01.786Z,9.1
2022-10-22T04:07:00.300Z,9.1
2022-10-22T04:08:00.218Z,9.1
2022-10-22T04:09:00.321Z,9.1
2022-10-22T04:10:00.310Z,9.1
2022-10-22T04:11:00.258Z,9.1
2022-10-22T04:12:00.920Z,9.1
2022-10-22T04:13:00.288Z,9.1
2022-10-22T04:14:00.237Z,9.1
2022-10-22T04:15:00.220Z,9.1
2022-10-22T04:16:09.964Z,9.1
2022-10-22T04:17:00.580Z,9.1
2022-10-22T04:18:00.257Z,9.1
2022-10-22T04:19:00.266Z,9.1
2022-10-22T04:20:01.441Z,9.1
2022-10-22T04:21:00.235Z,9.2
2022-10-22T04:22:00.616Z,9.2
2022-10-22T04:23:00.219Z,9.2
2022-10-22T04:24:00.649Z,9.2
2022-10-22T04:25:00.492Z,9.2
2022-10-22T04:26:03.357Z,9.2
2022-10-22T04:27:00.228Z,9.2
2022-10-22T04:28:00.242Z,9.3
2022-10-22T04:29:00.316Z,9.3
2022-10-22T04:30:00.401Z,9.3
2022-10-22T04:31:00.259Z,9.4
2022-10-22T04:32:00.236Z,9.4
2022-10-22T04:33:00.606Z,9.4
2022-10-22T04:34:00.553Z,9.4
2022-10-22T04:35:00.222Z,9.4
2022-10-22T04:36:05.635Z,9.4
2022-10-22T04:37:00.234Z,9.4
2022-10-22T04:38:00.239Z,9.4
2022-10-22T04:39:00.913Z,9.4
2022-10-22T04:40:00.308Z,9.4
2022-10-22T04:41:12.790Z,9.4
2022-10-22T04:42:00.228Z,9.4
2022-10-22T04:43:00.255Z,9.4
2022-10-22T04:44:00.779Z,9.4
2022-10-22T04:45:00.258Z,9.4
2022-10-22T04:46:00.264Z,9.4
2022-10-22T04:47:00.310Z,9.4
2022-10-22T04:48:00.254Z,9.4
2022-10-22T04:49:00.536Z,9.4
2022-10-22T04:50:00.322Z,9.5
2022-10-22T04:51:00.358Z,9.5
2022-10-22T04:52:00.242Z,9.5
2022-10-22T04:53:00.236Z,9.5
2022-10-22T04:54:00.381Z,9.5
2022-10-22T04:55:00.264Z,9.5
2022-10-22T04:56:08.519Z,9.5
2022-10-22T04:57:00.239Z,9.5
2022-10-22T04:58:00.212Z,9.5
2022-10-22T04:59:03.507Z,9.5
2022-10-22T05:00:00.241Z,9.5
2022-10-22T05:01:00.327Z,9.5
2022-10-22T05:02:00.264Z,9.4
2022-10-22T05:03:00.229Z,9.4
2022-10-22T05:04:01.745Z,9.4
2022-10-22T05:05:00.677Z,9.4
2022-10-22T05:06:01.062Z,9.4
2022-10-22T05:07:00.293Z,9.4
2022-10-22T05:08:00.211Z,9.4
2022-10-22T05:09:03.772Z,9.4
2022-10-22T05:10:00.229Z,9.4
2022-10-22T05:11:00.222Z,9.4
2022-10-22T05:12:00.406Z,9.4
2022-10-22T05:13:00.228Z,9.4
2022-10-22T05:14:02.854Z,9.4
2022-10-22T05:15:00.230Z,9.4
2022-10-22T05:16:00.987Z,9.4
2022-10-22T05:17:00.458Z,9.4
2022-10-22T05:18:00.815Z,9.3
2022-10-22T05:19:01.275Z,9.3
2022-10-22T05:20:00.226Z,9.3
2022-10-22T05:21:00.246Z,9.3
2022-10-22T05:22:01.930Z,9.3
2022-10-22T05:23:00.226Z,9.3
2022-10-22T05:24:00.243Z,9.3
2022-10-22T05:25:00.254Z,9.3
2022-10-22T05:26:02.923Z,9.3
2022-10-22T05:27:00.237Z,9.3
2022-10-22T05:28:00.466Z,9.3
2022-10-22T05:29:00.266Z,9.3
2022-10-22T05:30:00.238Z,9.3
2022-10-22T05:31:00.946Z,9.3
2022-10-22T05:32:00.254Z,9.3
2022-10-22T05:33:00.231Z,9.3
2022-10-22T05:34:00.361Z,9.3
2022-10-22T05:35:00.232Z,9.3
2022-10-22T05:36:02.081Z,9.3
2022-10-22T05:37:00.267Z,9.3
2022-10-22T05:38:00.269Z,9.3
2022-10-22T05:39:00.244Z,9.4
2022-10-22T05:40:12.451Z,9.4
2022-10-22T05:41:03.057Z,9.4
2022-10-22T05:42:00.224Z,9.4
2022-10-22T05:43:00.232Z,9.5
2022-10-22T05:44:01.264Z,9.5
2022-10-22T05:45:00.231Z,9.5
2022-10-22T05:46:03.208Z,9.5
2022-10-22T05:47:00.212Z,9.5
2022-10-22T05:48:00.223Z,9.5
2022-10-22T05:49:03.599Z,9.5
2022-10-22T05:50:00.254Z,9.5
2022-10-22T05:51:01.979Z,9.6
2022-10-22T05:52:00.237Z,9.6
2022-10-22T05:53:00.227Z,9.6
2022-10-22T05:54:02.819Z,9.6
2022-10-22T05:55:00.241Z,9.6
2022-10-22T05:56:01.057Z,9.7
2022-10-22T05:57:00.230Z,9.7
2022-10-22T05:58:00.283Z,9.7
2022-10-22T05:59:00.547Z,9.7
2022-10-22T06:00:00.234Z,9.7
2022-10-22T06:01:05.240Z,9.7
2022-10-22T06:02:00.306Z,9.7
2022-10-22T06:03:00.232Z,9.7
2022-10-22T06:04:03.583Z,9.7
2022-10-22T06:05:00.225Z,9.8
2022-10-22T06:06:06.696Z,9.8
2022-10-22T06:07:01.258Z,9.8
2022-10-22T06:08:00.262Z,9.8
2022-10-22T06:09:12.454Z,9.8
2022-10-22T06:10:00.975Z,9.9
2022-10-22T06:11:00.319Z,9.9
2022-10-22T06:12:01.028Z,9.9
2022-10-22T06:13:00.227Z,10.0
2022-10-22T06:14:00.263Z,10.0
2022-10-22T06:15:00.278Z,10.1
2022-10-22T06:16:00.236Z,10.1
2022-10-22T06:17:00.446Z,10.1
2022-10-22T06:18:00.249Z,10.1
2022-10-22T06:19:00.996Z,10.1
2022-10-22T06:20:00.380Z,10.2
2022-10-22T06:21:04.437Z,10.2
2022-10-22T06:22:00.243Z,10.2
2022-10-22T06:23:00.218Z,10.3
2022-10-22T06:24:00.655Z,10.3
2022-10-22T06:25:00.245Z,10.3
2022-10-22T06:26:01.096Z,10.4
2022-10-22T06:27:00.279Z,10.4
2022-10-22T06:28:00.220Z,10.4
2022-10-22T06:29:00.849Z,10.4
2022-10-22T06:30:00.233Z,10.4
2022-10-22T06:31:01.699Z,10.4
2022-10-22T06:32:00.225Z,10.5
2022-10-22T06:33:00.217Z,10.5
2022-10-22T06:34:00.238Z,10.5
2022-10-22T06:35:00.291Z,10.5
2022-10-22T06:36:07.643Z,10.5
2022-10-22T06:37:00.220Z,10.6
2022-10-22T06:38:00.224Z,10.6
2022-10-22T06:39:00.379Z,10.6
2022-10-22T06:40:00.448Z,10.6
2022-10-22T06:41:06.270Z,10.6
2022-10-22T06:42:00.246Z,10.6
2022-10-22T06:43:00.270Z,10.7
2022-10-22T06:44:00.285Z,10.7
2022-10-22T06:46:02.242Z,10.7
2022-10-22T06:47:00.245Z,10.7
2022-10-22T06:48:00.437Z,10.7
2022-10-22T06:49:01.556Z,10.7
2022-10-22T06:50:00.345Z,10.7
2022-10-22T06:51:02.142Z,10.7
2022-10-22T06:52:00.299Z,10.8
2022-10-22T06:53:00.254Z,10.8
2022-10-22T06:54:00.223Z,10.8
2022-10-22T06:55:00.283Z,10.8
2022-10-22T06:56:03.998Z,10.8
2022-10-22T06:57:00.237Z,10.8
2022-10-22T06:58:00.264Z,10.8
2022-10-22T06:59:00.426Z,10.8
2022-10-22T07:00:00.246Z,10.8
2022-10-22T07:01:06.189Z,10.8
2022-10-22T07:02:00.245Z,10.8
2022-10-22T07:03:00.234Z,10.8
2022-10-22T07:04:01.361Z,10.8
2022-10-22T07:05:00.233Z,10.8
2022-10-22T07:06:02.158Z,10.8
2022-10-22T07:07:00.233Z,10.8
2022-10-22T07:08:00.218Z,10.9
2022-10-22T07:09:00.387Z,10.9
2022-10-22T07:10:00.253Z,10.9
2022-10-22T07:11:11.449Z,10.9
2022-10-22T07:12:00.370Z,10.9
2022-10-22T07:13:00.243Z,11.0
2022-10-22T07:14:00.337Z,11.0
2022-10-22T07:15:00.233Z,11.0
2022-10-22T07:16:00.776Z,11.0
2022-10-22T07:17:00.239Z,11.0
2022-10-22T07:18:00.231Z,11.0
2022-10-22T07:19:01.878Z,11.0
2022-10-22T07:20:00.228Z,11.1
2022-10-22T07:21:00.333Z,11.1
2022-10-22T07:22:00.570Z,11.1
2022-10-22T07:23:00.215Z,11.1
2022-10-22T07:24:00.246Z,11.1
2022-10-22T07:25:05.132Z,11.1
2022-10-22T07:26:00.311Z,11.1
2022-10-22T07:27:00.229Z,11.1
2022-10-22T07:28:00.224Z,11.2
2022-10-22T07:29:00.683Z,11.2
2022-10-22T07:30:00.229Z,11.2
2022-10-22T07:31:00.263Z,11.3
2022-10-22T07:32:00.267Z,11.3
2022-10-22T07:33:00.227Z,11.3
2022-10-22T07:34:00.517Z,11.3
2022-10-22T07:35:00.231Z,11.3
2022-10-22T07:36:03.351Z,11.3
2022-10-22T07:37:00.240Z,11.3
2022-10-22T07:38:00.234Z,11.3
2022-10-22T07:39:00.540Z,11.4
2022-10-22T07:40:03.724Z,11.4
2022-10-22T07:41:00.453Z,11.4
2022-10-22T07:42:00.348Z,11.4
2022-10-22T07:43:01.047Z,11.4
2022-10-22T07:44:00.308Z,11.4
2022-10-22T07:45:00.221Z,11.4
2022-10-22T07:46:00.228Z,11.4
2022-10-22T07:47:00.238Z,11.4
2022-10-22T07:48:00.277Z,11.4
2022-10-22T07:49:00.235Z,11.4
2022-10-22T07:50:00.273Z,11.4
2022-10-22T07:51:00.283Z,11.4
2022-10-22T07:52:00.259Z,11.4
2022-10-22T07:53:00.263Z,11.4
2022-10-22T07:54:00.226Z,11.4
2022-10-22T07:55:00.260Z,11.4
2022-10-22T07:56:00.233Z,11.4
2022-10-22T07:57:00.269Z,11.4
2022-10-22T07:58:00.262Z,11.4
2022-10-22T08:00:00.221Z,11.4
2022-10-22T08:01:01.216Z,11.5
2022-10-22T08:02:00.258Z,11.5
2022-10-22T08:03:00.232Z,11.5
2022-10-22T08:04:00.208Z,11.5
2022-10-22T08:05:00.271Z,11.5
2022-10-22T08:06:00.753Z,11.5
2022-10-22T08:07:00.274Z,11.5
2022-10-22T08:08:00.274Z,11.6
2022-10-22T08:09:00.273Z,11.6
2022-10-22T08:10:00.369Z,11.6
2022-10-22T08:11:00.401Z,11.6
2022-10-22T08:12:00.598Z,11.6
2022-10-22T08:13:00.390Z,11.6
2022-10-22T08:14:00.327Z,11.7
2022-10-22T08:15:00.271Z,11.7
2022-10-22T08:16:00.882Z,11.7
2022-10-22T08:17:00.349Z,11.8
2022-10-22T08:18:00.226Z,11.8
2022-10-22T08:19:00.258Z,11.8
2022-10-22T08:20:00.322Z,11.8
2022-10-22T08:21:00.221Z,11.8
2022-10-22T08:22:01.022Z,11.8
2022-10-22T08:23:00.288Z,11.9
2022-10-22T08:24:00.266Z,11.9
2022-10-22T08:25:00.266Z,11.9
2022-10-22T08:26:00.225Z,11.9
2022-10-22T08:27:00.356Z,11.9
2022-10-22T08:28:00.335Z,11.9
2022-10-22T08:29:00.229Z,11.9
2022-10-22T08:30:00.263Z,12.0
2022-10-22T08:31:00.233Z,12.0
2022-10-22T08:32:00.334Z,12.0
2022-10-22T08:33:00.224Z,12.0
2022-10-22T08:34:00.268Z,12.0
2022-10-22T08:35:00.280Z,12.0
2022-10-22T08:36:00.211Z,12.0
2022-10-22T08:37:00.364Z,12.0
2022-10-22T08:38:00.228Z,12.0
2022-10-22T08:39:00.252Z,12.1
2022-10-22T08:40:00.503Z,12.1
2022-10-22T08:41:09.008Z,12.1
2022-10-22T08:42:10.168Z,12.1
2022-10-22T08:43:12.125Z,12.1
2022-10-22T08:44:19.274Z,12.2
2022-10-22T08:45:11.858Z,12.2
2022-10-22T08:46:20.124Z,12.2
2022-10-22T08:47:22.350Z,12.2
2022-10-22T08:48:18.812Z,12.2
2022-10-22T08:49:03.528Z,12.2
2022-10-22T08:50:00.840Z,12.2
2022-10-22T08:51:00.459Z,12.2
2022-10-22T08:52:00.679Z,12.2
2022-10-22T08:53:05.644Z,12.2
2022-10-22T08:54:06.656Z,12.2
2022-10-22T08:55:01.820Z,12.3
2022-10-22T08:56:00.243Z,12.3
2022-10-22T08:57:14.430Z,12.3
2022-10-22T08:58:05.036Z,12.3
2022-10-22T08:59:10.361Z,12.3
2022-10-22T09:00:16.687Z,12.4
2022-10-22T09:01:12.498Z,12.4
2022-10-22T09:02:01.786Z,12.4
2022-10-22T09:03:20.199Z,12.4
2022-10-22T09:04:13.468Z,12.4
2022-10-22T09:05:14.932Z,12.4
2022-10-22T09:06:10.162Z,12.4
2022-10-22T09:07:00.254Z,12.4
2022-10-22T09:08:00.351Z,12.4
2022-10-22T09:09:09.388Z,12.5
2022-10-22T09:10:02.531Z,12.5
2022-10-22T09:11:05.875Z,12.5
2022-10-22T09:12:02.718Z,12.5
2022-10-22T09:13:00.312Z,12.6
2022-10-22T09:14:01.726Z,12.6
2022-10-22T09:15:00.487Z,12.6
2022-10-22T09:16:13.280Z,12.6
2022-10-22T09:17:20.126Z,12.6
2022-10-22T09:18:20.150Z,12.6
2022-10-22T09:19:11.937Z,12.6
2022-10-22T09:20:08.865Z,12.6
2022-10-22T09:21:09.944Z,12.6
2022-10-22T09:22:09.055Z,12.7
2022-10-22T09:23:16.495Z,12.7
2022-10-22T09:24:05.645Z,12.7
2022-10-22T09:25:15.087Z,12.7
2022-10-22T09:26:00.363Z,12.7
2022-10-22T09:27:03.873Z,12.7
2022-10-22T09:28:00.223Z,12.7
2022-10-22T09:29:01.562Z,12.7
2022-10-22T09:30:00.282Z,12.8
2022-10-22T09:31:00.252Z,12.8
2022-10-22T09:32:00.284Z,12.8
2022-10-22T09:33:22.633Z,12.8
2022-10-22T09:34:00.540Z,12.8
2022-10-22T09:35:00.379Z,12.8
2022-10-22T09:36:01.212Z,12.8
2022-10-22T09:37:04.104Z,12.8
2022-10-22T09:38:07.514Z,12.8
2022-10-22T09:39:00.780Z,12.8
2022-10-22T09:40:03.967Z,12.8
2022-10-22T09:41:01.153Z,12.8
2022-10-22T09:42:00.261Z,12.8
2022-10-22T09:43:00.230Z,12.8
2022-10-22T09:44:00.227Z,12.8
2022-10-22T09:45:00.296Z,12.8
2022-10-22T09:46:04.233Z,12.8
2022-10-22T09:47:05.956Z,12.8
2022-10-22T09:48:11.182Z,12.8
2022-10-22T09:49:08.862Z,12.8
2022-10-22T09:50:10.325Z,12.8
2022-10-22T09:51:14.059Z,12.8
2022-10-22T09:52:01.000Z,12.8
2022-10-22T09:53:13.147Z,12.8
2022-10-22T09:54:10.940Z,12.8
2022-10-22T09:55:11.342Z,12.8
2022-10-22T09:56:06.861Z,12.8
2022-10-22T09:57:12.056Z,12.8
2022-10-22T09:58:00.228Z,12.8
2022-10-22T09:59:00.939Z,12.8
2022-10-22T10:00:00.243Z,12.8
2022-10-22T10:01:00.484Z,12.8
2022-10-22T10:02:19.665Z,12.8
2022-10-22T10:03:00.455Z,12.8
2022-10-22T10:04:08.338Z,12.8
2022-10-22T10:05:02.744Z,12.8
2022-10-22T10:06:04.813Z,12.8
2022-10-22T10:07:00.268Z,12.8
2022-10-22T10:08:10.915Z,12.8
2022-10-22T10:09:00.576Z,12.8
2022-10-22T10:10:00.927Z,12.8
2022-10-22T10:11:06.934Z,12.8
2022-10-22T10:12:10.798Z,12.8
2022-10-22T10:13:17.941Z,12.8
2022-10-22T10:14:12.620Z,12.8
2022-10-22T10:15:10.186Z,12.8
2022-10-22T10:16:17.578Z,12.8
2022-10-22T10:17:20.123Z,12.8
2022-10-22T10:18:03.487Z,12.8
2022-10-22T10:19:13.437Z,12.8
2022-10-22T10:20:20.148Z,12.8
2022-10-22T10:22:19.603Z,12.8
2022-10-22T10:23:13.190Z,12.8
2022-10-22T10:24:01.229Z,12.8
2022-10-22T10:25:13.428Z,12.7
2022-10-22T10:26:11.592Z,12.7
2022-10-22T10:27:13.988Z,12.7
2022-10-22T10:28:19.523Z,12.8
2022-10-22T10:29:13.011Z,12.8
2022-10-22T10:30:08.756Z,12.8
2022-10-22T10:31:11.229Z,12.8
2022-10-22T10:32:22.403Z,12.8
2022-10-22T10:33:07.504Z,12.8
2022-10-22T10:34:10.173Z,12.8
2022-10-22T10:35:20.125Z,12.8
2022-10-22T10:36:09.313Z,12.8
2022-10-22T10:37:09.896Z,12.8
2022-10-22T10:38:08.113Z,12.8
2022-10-22T10:39:10.185Z,12.8
2022-10-22T10:40:10.920Z,12.8
2022-10-22T10:41:20.126Z,12.8
2022-10-22T10:42:11.925Z,12.8
2022-10-22T10:43:12.457Z,12.8
2022-10-22T10:44:13.445Z,12.8
2022-10-22T10:45:08.264Z,12.8
2022-10-22T10:46:12.915Z,12.7
2022-10-22T10:47:17.114Z,12.7
2022-10-22T10:48:09.310Z,12.7
2022-10-22T10:49:09.100Z,12.7
2022-10-22T10:50:16.642Z,12.6
2022-10-22T10:51:11.167Z,12.6
2022-10-22T10:52:20.410Z,12.6
2022-10-22T10:53:09.154Z,12.6
2022-10-22T10:54:17.404Z,12.6
2022-10-22T10:55:17.778Z,12.6
2022-10-22T10:56:20.125Z,12.6
2022-10-22T10:57:10.828Z,12.6
2022-10-22T10:58:17.006Z,12.6
2022-10-22T10:59:08.616Z,12.6
2022-10-22T11:00:05.774Z,12.6
2022-10-22T11:01:10.995Z,12.6
2022-10-22T11:02:20.123Z,12.6
2022-10-22T11:03:19.931Z,12.6
2022-10-22T11:04:10.173Z,12.6
2022-10-22T11:05:12.559Z,12.6
2022-10-22T11:06:06.006Z,12.6
2022-10-22T11:07:11.706Z,12.6
2022-10-22T11:08:13.582Z,12.6
2022-10-22T11:09:10.144Z,12.7
2022-10-22T11:10:06.097Z,12.7
2022-10-22T11:11:06.361Z,12.7
2022-10-22T11:12:04.565Z,12.7
2022-10-22T11:13:10.458Z,12.7
2022-10-22T11:14:10.172Z,12.7
2022-10-22T11:15:08.299Z,12.8
2022-10-22T11:16:09.154Z,12.8
2022-10-22T11:17:07.368Z,12.8
2022-10-22T11:18:06.916Z,12.8
2022-10-22T11:19:06.447Z,12.8
2022-10-22T11:20:13.360Z,12.8
2022-10-22T11:21:15.623Z,12.8
2022-10-22T11:22:12.366Z,12.8
2022-10-22T11:23:20.145Z,12.8
2022-10-22T11:24:07.143Z,12.8
2022-10-22T11:25:10.167Z,12.9
2022-10-22T11:26:02.131Z,12.9
2022-10-22T11:27:05.997Z,12.9
2022-10-22T11:28:09.084Z,12.9
2022-10-22T11:29:04.110Z,12.9
2022-10-22T11:30:05.299Z,13.0
2022-10-22T11:31:12.006Z,13.0
2022-10-22T11:32:01.874Z,13.1
2022-10-22T11:33:04.462Z,13.1
2022-10-22T11:34:32.836Z,13.2
2022-10-22T11:35:04.584Z,13.3
2022-10-22T11:36:02.891Z,13.3
2022-10-22T11:37:02.992Z,13.3
2022-10-22T11:38:03.707Z,13.4
2022-10-22T11:39:02.716Z,13.4
2022-10-22T11:40:06.226Z,13.4
2022-10-22T11:41:05.828Z,13.4
2022-10-22T11:42:05.274Z,13.4
2022-10-22T11:43:08.002Z,13.4
2022-10-22T11:44:10.947Z,13.5
2022-10-22T11:45:05.614Z,13.5
2022-10-22T11:46:02.179Z,13.5
2022-10-22T11:47:20.124Z,13.6
2022-10-22T11:48:10.169Z,13.6
2022-10-22T11:49:04.716Z,13.6
2022-10-22T11:50:20.147Z,13.6
2022-10-22T11:51:01.056Z,13.6
2022-10-22T11:52:20.120Z,13.7
2022-10-22T11:53:03.740Z,13.7
2022-10-22T11:54:02.326Z,13.7
2022-10-22T11:55:01.516Z,13.7
2022-10-22T11:56:07.556Z,13.6
2022-10-22T11:57:13.423Z,13.7
2022-10-22T11:58:11.184Z,13.7
2022-10-22T11:59:10.231Z,13.7
2022-10-22T12:00:00.424Z,13.7
2022-10-22T12:01:00.243Z,13.7
2022-10-22T12:02:00.260Z,13.7
2022-10-22T12:03:02.505Z,13.7
2022-10-22T12:04:15.366Z,13.7
2022-10-22T12:05:18.715Z,13.7
2022-10-22T12:06:07.603Z,13.7
2022-10-22T12:07:01.200Z,13.7
2022-10-22T12:08:15.849Z,13.7
2022-10-22T12:09:05.133Z,13.7
2022-10-22T12:10:04.776Z,13.8
2022-10-22T12:11:05.124Z,13.8
2022-10-22T12:12:03.684Z,13.8
2022-10-22T12:13:12.310Z,13.8
2022-10-22T12:14:20.140Z,13.8
2022-10-22T12:15:00.244Z,13.8
2022-10-22T12:16:02.969Z,13.9
2022-10-22T12:17:11.310Z,13.9
2022-10-22T12:18:04.448Z,14.0
2022-10-22T12:19:10.957Z,14.0
2022-10-22T12:20:09.970Z,14.1
2022-10-22T12:21:00.335Z,14.1
2022-10-22T12:22:10.168Z,14.1
2022-10-22T12:23:00.423Z,14.2
2022-10-22T12:24:02.088Z,14.2
2022-10-22T12:25:05.030Z,14.2
2022-10-22T12:26:02.702Z,14.2
2022-10-22T12:27:00.226Z,14.2
2022-10-22T12:28:00.240Z,14.1
2022-10-22T12:29:05.251Z,14.1
2022-10-22T12:30:02.395Z,14.1
2022-10-22T12:31:00.218Z,14.1
2022-10-22T12:32:03.288Z,14.1
2022-10-22T12:33:02.633Z,14.0
2022-10-22T12:34:00.313Z,14.0
2022-10-22T12:35:04.767Z,14.0
2022-10-22T12:36:00.240Z,13.9
2022-10-22T12:37:03.634Z,13.9
2022-10-22T12:38:07.192Z,14.0
2022-10-22T12:39:03.038Z,13.9
2022-10-22T12:40:00.219Z,13.9
2022-10-22T12:41:00.248Z,13.9
2022-10-22T12:42:00.260Z,13.9
2022-10-22T12:44:02.646Z,13.9
2022-10-22T12:45:00.235Z,13.8
2022-10-22T12:46:00.261Z,13.9
2022-10-22T12:47:00.323Z,13.8
2022-10-22T12:48:03.686Z,13.8
2022-10-22T12:49:03.180Z,13.8
2022-10-22T12:50:02.606Z,13.8
2022-10-22T12:51:02.098Z,13.8
2022-10-22T12:52:07.694Z,13.7
2022-10-22T12:53:00.270Z,13.7
2022-10-22T12:54:07.837Z,13.7
2022-10-22T12:55:04.039Z,13.7
2022-10-22T12:56:04.298Z,13.7
2022-10-22T12:57:01.338Z,13.6
2022-10-22T12:58:04.802Z,13.6
2022-10-22T12:59:04.924Z,13.6
2022-10-22T13:01:00.398Z,13.5
2022-10-22T13:02:01.490Z,13.5
2022-10-22T13:03:05.286Z,13.5
2022-10-22T13:04:06.282Z,13.4
2022-10-22T13:05:16.016Z,13.4
2022-10-22T13:06:10.808Z,13.4
2022-10-22T13:07:11.176Z,13.4
2022-10-22T13:08:03.437Z,13.4
2022-10-22T13:09:00.757Z,13.4
2022-10-22T13:10:00.240Z,13.4
2022-10-22T13:11:07.801Z,13.4
2022-10-22T13:12:04.909Z,13.3
2022-10-22T13:13:00.410Z,13.3
2022-10-22T13:14:02.489Z,13.3
2022-10-22T13:15:19.341Z,13.2
2022-10-22T13:16:12.740Z,13.2
2022-10-22T13:17:02.844Z,13.2
2022-10-22T13:18:12.423Z,13.2
2022-10-22T13:19:00.285Z,13.2
2022-10-22T13:20:02.861Z,13.2
2022-10-22T13:21:01.721Z,13.2
2022-10-22T13:22:00.247Z,13.2
2022-10-22T13:23:01.913Z,13.2
2022-10-22T13:24:02.501Z,13.2
2022-10-22T13:25:20.180Z,13.2
2022-10-22T13:26:09.588Z,13.2
2022-10-22T13:27:00.273Z,13.2
2022-10-22T13:28:11.649Z,13.2
2022-10-22T13:29:02.520Z,13.1
2022-10-22T13:30:08.319Z,13.1
2022-10-22T13:31:08.254Z,13.2
2022-10-22T13:32:00.286Z,13.2
2022-10-22T13:33:03.094Z,13.2
2022-10-22T13:34:06.618Z,13.2
2022-10-22T13:35:01.623Z,13.1
2022-10-22T13:36:00.599Z,13.1
2022-10-22T13:37:00.288Z,13.1
2022-10-22T13:38:00.829Z,13.1
2022-10-22T13:39:00.523Z,13.1